createdAt,value
2023-05-22T07:21:33.397Z,9.60
2023-05-22T07:31:40.435Z,12.00
2023-05-22T07:41:51.639Z,8.70
2023-05-22T07:51:59.014Z,8.20
2023-05-22T08:02:06.545Z,8.90
2023-05-22T08:12:13.109Z,9.70
2023-05-22T08:22:20.308Z,9.50
2023-05-22T08:32:28.145Z,10.10
2023-05-22T08:42:35.942Z,10.70
2023-05-22T08:52:52.523Z,10.70
2023-05-22T09:02:59.197Z,8.80
2023-05-22T09:13:06.685Z,13.10
2023-05-22T09:23:19.187Z,9.00
2023-05-22T09:33:26.088Z,12.00
2023-05-22T09:43:32.852Z,12.50
2023-05-22T09:53:41.027Z,10.60
2023-05-22T10:03:49.633Z,9.30
2023-05-22T10:13:56.551Z,8.80
2023-05-22T10:24:03.259Z,9.70
2023-05-22T10:34:12.918Z,11.70
2023-05-22T10:44:19.810Z,13.20
2023-05-22T10:54:42.796Z,10.30
2023-05-22T11:04:49.675Z,9.00
2023-05-22T11:15:00.145Z,10.90
2023-05-22T11:25:18.032Z,10.50
2023-05-22T11:35:24.548Z,9.90
2023-05-22T11:45:31.076Z,9.50
2023-05-22T11:55:38.172Z,7.80
2023-05-22T12:05:47.514Z,11.30
2023-05-22T12:15:59.709Z,9.30
2023-05-22T12:26:10.972Z,11.00
2023-05-22T12:36:17.556Z,9.70
2023-05-22T12:46:24.135Z,10.80
2023-05-22T12:56:31.325Z,12.00
2023-05-22T13:06:37.870Z,10.00
2023-05-22T13:16:44.632Z,7.90
2023-05-22T13:26:51.617Z,9.10
2023-05-22T13:36:58.128Z,8.10
2023-05-22T13:47:05.047Z,10.20
2023-05-22T13:57:11.700Z,11.60
2023-05-22T14:07:18.263Z,10.00
2023-05-22T14:17:25.107Z,10.00
2023-05-22T14:27:32.168Z,8.70
2023-05-22T14:37:38.754Z,8.80
2023-05-22T14:47:45.403Z,15.40
2023-05-22T14:57:51.912Z,14.10
2023-05-22T15:08:01.284Z,9.70
2023-05-22T15:18:07.928Z,6.70
2023-05-22T15:28:14.693Z,8.00
2023-05-22T15:38:21.540Z,14.20
2023-05-22T15:48:28.210Z,12.20
2023-05-22T15:58:34.892Z,10.20
2023-05-22T16:08:41.449Z,7.40
2023-05-22T16:18:48.047Z,14.20
2023-05-22T16:28:54.581Z,10.30
2023-05-22T16:39:01.068Z,10.80
2023-05-22T16:49:07.630Z,8.60
2023-05-22T16:59:14.495Z,11.30
2023-05-22T17:09:22.062Z,12.10
2023-05-22T17:19:28.614Z,12.80
2023-05-22T17:29:35.202Z,11.20
2023-05-22T17:39:41.752Z,11.50
2023-05-22T17:49:48.243Z,10.00
2023-05-22T17:59:54.753Z,10.40
2023-05-22T18:10:01.330Z,12.80
2023-05-22T18:20:09.554Z,12.70
2023-05-22T18:30:16.179Z,18.90
2023-05-22T18:40:22.771Z,14.50
2023-05-22T18:50:29.285Z,20.20
2023-05-22T19:00:36.177Z,14.60
2023-05-22T19:10:43.221Z,13.50
2023-05-22T19:20:49.898Z,12.90
2023-05-22T19:30:59.019Z,13.70
2023-05-22T19:41:05.626Z,13.50
2023-05-22T19:51:12.297Z,17.60
2023-05-22T20:01:18.920Z,14.30
2023-05-22T20:11:25.465Z,15.90
2023-05-22T20:21:32.348Z,20.40
2023-05-22T20:31:38.985Z,15.80
2023-05-22T20:41:45.507Z,18.20
2023-05-22T20:51:53.249Z,21.90
2023-05-22T21:02:00.025Z,17.30
2023-05-22T21:12:06.676Z,20.30
2023-05-22T21:22:13.218Z,20.50
2023-05-22T21:32:19.815Z,19.90
2023-05-22T21:42:26.438Z,20.80
2023-05-22T21:52:32.965Z,18.10
2023-05-22T22:02:39.588Z,15.80
2023-05-22T22:12:46.187Z,20.50
2023-05-22T22:22:52.931Z,17.80
2023-05-22T22:32:59.586Z,18.50
2023-05-22T22:43:06.426Z,20.00
2023-05-22T22:53:12.959Z,21.40
2023-05-22T23:03:19.636Z,20.20
2023-05-22T23:13:26.777Z,20.40
2023-05-22T23:23:33.513Z,20.90
2023-05-22T23:33:40.071Z,17.40
2023-05-22T23:43:47.217Z,18.70
2023-05-22T23:53:53.759Z,20.10
